Bei Facebook empfehlenBei Twitter postenGoogle plusPinterest

Das Wetter im Erzgebirge am 05.06.2016

Wetter und Klima am 05.06.2016 Holzhau im Erzgebirge (630m ü.NN)
Letzte gemessene Temperatur und Uhrzeit der Messung23:45:00 Uhr10.70 °C
Temperatur (Maximum / Höchstwert) und Uhrzeit der Messung15:30:00 Uhr25.60 °C
Temperatur (Minimum / Tiefstwert) und Uhrzeit der Messung05:00:009.10 °C
Errechneter Absolutwert der Temperaturschwankungen zwischen Tmin und Tmax des Tages16.50 K
Errechnete Tagesmitteltemperatur17.09896 °C
Gesamt - Niederschlag des Tages (in flüssiger Form)0.00 Liter / m²
Luftdruck (Maximum / Höchstwert) und Zeitpunkt der Messung23:45:00 Uhr1015.90 hPa
Luftdruck (Minimum / Tiefstwert) und Zeitpunkt der Messung04:15:00 Uhr1012.00 hPa
Errechneter Absolutwert der Luftdruckschwankungen des Tages3.90 hPa
Höchste gemessene Windgeschwindigkeit und Uhrzeit der Messung23:45:00 Uhr0.00 km/h
Errechnete Windhäufigkeit in Relation zu den Messwerten des Tages0.00000 %
Niedrigste Windkühle (Windchill) und Zeitpunkt der Messung05:00:00 Uhr9.10 °C
Taupunkt (Maximum / Höchstwert) und Uhrzeit der Messung08:30:00 Uhr18.10 °C
Taupunkt (Minimum / Tiefstwert) und Uhrzeit der Messung04:45:008.20 °C
Anzahl der automatisch eingelesenen Messwerte 96

Detaillierte Wetter- und Klima- Messwerte für den 05.06.2016 in Holzhau im Erzgebirge (630m ü.NN)
ZeitTemperaturLuftdruckRel. LuftfeuchteWindWindrichtungWindchillTaupunktNiederschlag l/m²
23:45:0010.70 °C1015.90 hPa86.00 %8.50 °C 
23:30:0010.90 °C1015.80 hPa85.00 %8.50 °C 
23:15:0011.30 °C1015.70 hPa85.00 %8.90 °C 
23:00:0011.60 °C1015.70 hPa85.00 %9.20 °C 
22:45:0011.80 °C1015.60 hPa85.00 %9.40 °C 
22:30:0011.90 °C1015.50 hPa84.00 %9.30 °C 
22:15:0011.90 °C1015.60 hPa84.00 %9.30 °C 
22:00:0012.20 °C1015.60 hPa83.00 %9.40 °C 
21:45:0012.40 °C1015.20 hPa83.00 %9.60 °C 
21:30:0012.60 °C1015.20 hPa81.00 %9.40 °C 
21:15:0013.10 °C1015.10 hPa80.00 %9.70 °C 
21:00:0013.50 °C1015.00 hPa78.00 %9.70 °C 
20:45:0014.00 °C1015.00 hPa76.00 %9.80 °C 
20:30:0014.60 °C1015.10 hPa74.00 %10.00 °C 
20:15:0015.60 °C1015.10 hPa71.00 %10.40 °C 
20:00:0017.00 °C1015.10 hPa68.00 %11.10 °C 
19:45:0017.80 °C1015.10 hPa67.00 %11.60 °C 
19:30:0018.40 °C1015.00 hPa66.00 %11.90 °C 
19:15:0018.80 °C1014.60 hPa66.00 %12.30 °C 
19:00:0019.50 °C1014.10 hPa63.00 %12.30 °C 
18:45:0020.40 °C1014.10 hPa59.00 %12.10 °C 
18:30:0021.30 °C1014.10 hPa57.00 %12.40 °C 
18:15:0022.90 °C1013.50 hPa55.00 %13.40 °C 
18:00:0023.90 °C1013.60 hPa55.00 %14.30 °C 
17:45:0023.60 °C1013.50 hPa57.00 %14.60 °C 
17:30:0023.40 °C1013.60 hPa57.00 %14.40 °C 
17:15:0023.20 °C1013.50 hPa55.00 %13.70 °C 
17:00:0023.90 °C1014.00 hPa53.00 %13.70 °C 
16:45:0024.60 °C1014.00 hPa53.00 %14.40 °C 
16:30:0025.20 °C1013.80 hPa53.00 %14.90 °C 
16:15:0024.90 °C1013.60 hPa54.00 %15.00 °C 
16:00:0024.50 °C1013.70 hPa54.00 %14.60 °C 
15:45:0024.90 °C1013.90 hPa52.00 %14.40 °C 
15:30:0025.60 °C1013.90 hPa49.00 %14.10 °C 
15:15:0025.10 °C1013.70 hPa51.00 %14.30 °C 
15:00:0024.80 °C1013.80 hPa51.00 %14.00 °C 
14:45:0023.90 °C1013.70 hPa53.00 %13.70 °C 
14:30:0024.40 °C1013.90 hPa52.00 %13.90 °C 
14:15:0025.40 °C1013.80 hPa54.00 %15.40 °C 
14:00:0025.60 °C1014.10 hPa56.00 %16.20 °C 
13:45:0024.60 °C1014.20 hPa56.00 %15.20 °C 
13:30:0025.30 °C1014.30 hPa51.00 %14.40 °C 
13:15:0024.80 °C1014.00 hPa53.00 %14.60 °C 
13:00:0024.20 °C1014.20 hPa53.00 %14.00 °C 
12:45:0024.30 °C1014.10 hPa55.00 %14.70 °C 
12:30:0024.60 °C1014.10 hPa57.00 %15.50 °C 
12:15:0024.20 °C1014.20 hPa57.00 %15.10 °C 
12:00:0023.00 °C1014.10 hPa59.00 %14.60 °C 
11:45:0022.40 °C1014.00 hPa61.00 %14.50 °C 
11:30:0022.60 °C1014.10 hPa62.00 %15.00 °C 
11:15:0022.40 °C1014.00 hPa60.00 %14.30 °C 
11:00:0023.00 °C1014.00 hPa60.00 %14.80 °C 
10:45:0023.20 °C1013.90 hPa62.00 %15.50 °C 
10:30:0022.90 °C1013.90 hPa63.00 %15.50 °C 
10:15:0022.50 °C1013.80 hPa65.00 %15.60 °C 
10:00:0021.90 °C1013.80 hPa67.00 %15.50 °C 
09:45:0021.50 °C1013.50 hPa67.00 %15.10 °C 
09:30:0021.40 °C1013.50 hPa69.00 %15.50 °C 
09:15:0021.30 °C1013.40 hPa73.00 %16.30 °C 
09:00:0021.00 °C1013.40 hPa79.00 %17.20 °C 
08:45:0020.40 °C1013.20 hPa84.00 %17.60 °C 
08:30:0020.00 °C1013.10 hPa89.00 %18.10 °C 
08:15:0019.40 °C1013.00 hPa92.00 %18.10 °C 
08:00:0018.40 °C1012.90 hPa94.00 %17.40 °C 
07:45:0017.40 °C1012.70 hPa95.00 %16.60 °C 
07:30:0015.90 °C1012.70 hPa96.00 %15.30 °C 
07:15:0014.10 °C1012.70 hPa96.00 %13.50 °C 
07:00:0011.60 °C1012.80 hPa96.00 %11.00 °C 
06:45:0011.20 °C1012.70 hPa95.00 %10.40 °C 
06:30:0010.70 °C1012.60 hPa95.00 %9.90 °C 
06:15:0010.30 °C1012.50 hPa95.00 %9.50 °C 
06:00:009.90 °C1012.60 hPa95.00 %9.10 °C 
05:45:009.70 °C1012.50 hPa95.00 %8.90 °C 
05:30:009.40 °C1012.40 hPa95.00 %8.60 °C 
05:15:009.30 °C1012.30 hPa95.00 %8.50 °C 
05:00:009.10 °C1012.20 hPa95.00 %8.30 °C 
04:45:009.10 °C1012.20 hPa94.00 %8.20 °C 
04:30:009.10 °C1012.10 hPa94.00 %8.20 °C 
04:15:009.20 °C1012.00 hPa94.00 %8.30 °C 
04:00:009.30 °C1012.00 hPa94.00 %8.40 °C 
03:45:009.30 °C1012.10 hPa94.00 %8.40 °C 
03:30:009.50 °C1012.00 hPa94.00 %8.60 °C 
03:15:009.60 °C1012.10 hPa94.00 %8.70 °C 
03:00:009.60 °C1012.10 hPa94.00 %8.70 °C 
02:45:009.80 °C1012.20 hPa94.00 %8.90 °C 
02:30:009.90 °C1012.10 hPa94.00 %9.00 °C 
02:15:009.90 °C1012.10 hPa94.00 %9.00 °C 
02:00:0010.00 °C1012.20 hPa94.00 %9.10 °C 
01:45:0010.20 °C1012.00 hPa93.00 %9.10 °C 
01:30:0010.50 °C1012.10 hPa93.00 %9.40 °C 
01:15:0010.70 °C1012.20 hPa93.00 %9.60 °C 
01:00:0010.90 °C1012.10 hPa93.00 %9.80 °C 
00:45:0011.10 °C1012.10 hPa93.00 %10.00 °C 
00:30:0011.40 °C1012.20 hPa93.00 %10.30 °C 
00:15:0011.60 °C1012.10 hPa93.00 %10.50 °C 
00:00:0011.80 °C1012.10 hPa93.00 %10.70 °C 

Permanenter Link zu dieser Seite: Wetter im Erzgebirge am 05.06.2016
Performance-Info: Die Erstellung der Seite / Statistik(en) / Tabelle(n) erforderte 5 Datenbankserver-Abfrage(n) und dauerte 99 Millisekunden. (Dieser Messwert ist von der Gesamt-Auslastung des Servers abhängig.)
Erzgebirge - Wetter | Erzgebirge - Wetter (Mobilgeräte) | Komplette Klimadatenbank